Terminal Aerodrome Forecast
Issued by NWS

Home | Current Version | Previous Version | Text Only | Print | Product List | Glossary On
Versions: 1 2 3 4 5 6 7 8 9 10 11 12 13 14 15 16 17
261
FTUS42 KTBW 271720
TAFLAL
TAF
KLAL 271720Z 2718/2818 36004KT P6SM VCTS SCT040CB BKN250
      TEMPO 2718/2722 VRB15G25KT 1SM TSRA
     FM280000 VRB05KT P6SM BKN050 BKN250
     FM280200 VRB03KT P6SM FEW050 BKN250
     FM281200 VRB02KT P6SM FEW030 SCT250=

USA.gov is the U.S. government's official web portal to all federal, state and local government web resources and services.